Time;durP1;ratioP1;P1;durP2;ratioP2;P2;SDS_P1;SDS_P2;PMS_P1;PMS_P2;Temp;Humidity;BMP_temperature;BMP_pressure;BME280_temperature;BME280_humidity;BME280_pressure;Samples;Min_cycle;Max_cycle;Signal;HPM_P1;HPM_P2
2021/03/14 00:02:13;;;;;;;2.87;2.67;;;6.80;1.00;;;;;;5066630;28;20532;-67
2021/03/14 00:04:40;;;;;;;2.72;2.53;;;6.90;1.00;;;;;;5068952;28;20988;-66
2021/03/14 00:07:06;;;;;;;3.58;2.33;;;6.80;1.00;;;;;;5068701;28;20186;-66
2021/03/14 00:09:32;;;;;;;2.70;2.50;;;6.80;1.00;;;;;;5066769;28;20665;-66
2021/03/14 00:11:58;;;;;;;2.80;2.50;;;6.80;1.00;;;;;;5070342;28;20186;-66
2021/03/14 00:14:24;;;;;;;2.67;2.47;;;6.70;1.00;;;;;;5087118;28;20550;-67
2021/03/14 00:16:51;;;;;;;2.42;2.33;;;6.80;1.00;;;;;;5071555;28;20170;-67
2021/03/14 00:19:17;;;;;;;2.70;2.50;;;6.70;1.00;;;;;;5067348;28;20201;-67
2021/03/14 00:21:42;;;;;;;4.77;2.73;;;6.70;1.00;;;;;;5067454;28;20213;-66
2021/03/14 00:24:08;;;;;;;4.17;2.80;;;6.70;1.00;;;;;;5065875;28;20272;-67
2021/03/14 00:26:34;;;;;;;2.90;2.70;;;6.70;1.00;;;;;;5068519;28;20174;-67
2021/03/14 00:28:59;;;;;;;3.20;2.80;;;6.70;1.00;;;;;;5067834;28;20666;-67
2021/03/14 00:31:25;;;;;;;2.90;2.70;;;6.70;1.00;;;;;;5069379;28;20170;-67
2021/03/14 00:33:51;;;;;;;4.07;3.10;;;6.60;1.00;;;;;;5067732;28;20659;-67
2021/03/14 00:36:16;;;;;;;4.20;3.10;;;6.70;1.00;;;;;;5068692;28;20655;-67
2021/03/14 00:38:42;;;;;;;2.70;2.60;;;6.60;1.00;;;;;;5067644;28;20181;-67
2021/03/14 00:41:08;;;;;;;2.80;2.60;;;6.70;1.00;;;;;;5069201;28;20171;-67
2021/03/14 00:43:33;;;;;;;3.97;3.53;;;6.70;9.20;;;;;;5067829;28;20189;-68
2021/03/14 00:45:59;;;;;;;3.17;2.97;;;6.70;12.20;;;;;;5071215;28;20190;-67
2021/03/14 00:48:24;;;;;;;2.57;2.37;;;6.70;1.00;;;;;;5069642;28;20194;-67
2021/03/14 00:50:50;;;;;;;4.77;2.80;;;6.70;1.00;;;;;;5069033;28;20192;-67
2021/03/14 00:53:15;;;;;;;2.80;2.60;;;6.80;1.00;;;;;;5065752;28;20529;-66
2021/03/14 00:55:41;;;;;;;2.67;2.47;;;6.80;1.00;;;;;;5068239;28;20271;-67
2021/03/14 00:58:06;;;;;;;2.93;2.73;;;6.80;1.00;;;;;;5069580;28;20194;-66
2021/03/14 01:00:32;;;;;;;3.80;3.07;;;6.70;1.00;;;;;;5068848;28;20196;-66
2021/03/14 01:02:58;;;;;;;3.10;2.60;;;6.70;1.00;;;;;;5066438;28;20225;-67
2021/03/14 01:05:24;;;;;;;3.30;3.00;;;6.80;1.00;;;;;;5078043;28;20421;-67
2021/03/14 01:07:49;;;;;;;3.37;2.90;;;6.80;1.00;;;;;;5066051;28;20269;-68
2021/03/14 01:10:15;;;;;;;2.87;2.67;;;6.80;1.00;;;;;;5068652;28;20223;-67
2021/03/14 01:12:41;;;;;;;3.17;2.97;;;6.80;1.00;;;;;;5067040;28;20190;-66
2021/03/14 01:15:09;;;;;;;2.93;2.73;;;6.80;1.00;;;;;;5071459;28;20214;-67
2021/03/14 01:17:34;;;;;;;3.00;2.80;;;6.80;1.00;;;;;;5071003;28;20521;-67
2021/03/14 01:20:00;;;;;;;3.53;2.97;;;6.80;1.00;;;;;;5072075;28;20260;-67
2021/03/14 01:22:26;;;;;;;2.90;2.70;;;6.90;1.00;;;;;;5070290;28;20213;-68
2021/03/14 01:24:51;;;;;;;2.87;2.67;;;6.90;1.00;;;;;;5071566;28;20465;-68
2021/03/14 01:27:17;;;;;;;2.93;2.73;;;6.90;1.00;;;;;;5071604;28;20293;-68
2021/03/14 01:29:42;;;;;;;3.07;2.87;;;6.90;1.00;;;;;;5071323;28;20659;-68
2021/03/14 01:32:08;;;;;;;3.63;3.30;;;6.90;1.00;;;;;;5071357;28;20636;-67
2021/03/14 01:34:33;;;;;;;3.40;2.80;;;6.80;1.00;;;;;;5071627;28;20213;-68
2021/03/14 01:36:59;;;;;;;2.90;2.70;;;6.80;1.00;;;;;;5071268;28;20178;-67
2021/03/14 01:39:24;;;;;;;3.17;2.80;;;6.80;1.00;;;;;;5071428;28;20235;-67
2021/03/14 01:41:50;;;;;;;2.90;2.70;;;6.90;1.00;;;;;;5071036;28;20178;-67
2021/03/14 01:44:15;;;;;;;3.67;2.90;;;6.90;1.00;;;;;;5071181;28;20182;-67
2021/03/14 01:46:41;;;;;;;4.13;3.10;;;6.90;1.00;;;;;;5071175;28;20644;-67
2021/03/14 01:49:07;;;;;;;3.10;2.90;;;6.90;1.00;;;;;;5070233;28;20190;-69
2021/03/14 01:51:33;;;;;;;4.50;2.83;;;6.90;1.00;;;;;;5070947;28;20201;-68
2021/03/14 01:53:59;;;;;;;3.23;2.97;;;6.90;1.00;;;;;;5070835;28;20274;-67
2021/03/14 01:56:25;;;;;;;3.10;2.90;;;6.90;1.00;;;;;;5071754;28;20231;-68
2021/03/14 01:58:50;;;;;;;4.70;2.83;;;6.90;1.00;;;;;;5070502;28;20182;-67
2021/03/14 02:01:16;;;;;;;2.70;2.60;;;6.90;1.00;;;;;;5070863;28;20239;-67
2021/03/14 02:03:42;;;;;;;2.85;2.65;;;6.90;1.00;;;;;;5069980;28;20252;-67
2021/03/14 02:06:09;;;;;;;3.58;2.65;;;6.90;1.00;;;;;;5071269;28;20195;-67
2021/03/14 02:08:34;;;;;;;3.00;2.70;;;6.90;1.00;;;;;;5064683;28;20199;-67
2021/03/14 02:11:00;;;;;;;2.80;2.60;;;6.90;1.00;;;;;;5068905;28;20193;-67
2021/03/14 02:13:36;;;;;;;3.23;3.03;;;6.90;1.00;;;;;;5070024;28;20440;-67
2021/03/14 02:16:16;;;;;;;2.90;2.70;;;7.00;1.00;;;;;;5068025;28;20698;-67
2021/03/14 02:18:47;;;;;;;2.90;2.60;;;7.00;1.00;;;;;;5067958;28;20171;-66
2021/03/14 02:21:13;;;;;;;2.90;2.70;;;6.90;1.00;;;;;;5075592;28;20194;-67
2021/03/14 02:23:57;;;;;;;3.13;2.93;;;6.90;1.00;;;;;;5070136;28;20497;-67
2021/03/14 02:26:37;;;;;;;3.30;2.90;;;6.90;1.00;;;;;;5059214;28;20182;-66
2021/03/14 02:29:02;;;;;;;2.85;2.65;;;6.90;1.00;;;;;;5066675;28;20201;-67
2021/03/14 02:31:29;;;;;;;3.20;3.00;;;6.80;1.00;;;;;;5070755;28;20993;-67
2021/03/14 02:34:04;;;;;;;2.92;2.72;;;6.90;1.00;;;;;;5070191;28;20503;-67
2021/03/14 02:36:33;;;;;;;5.95;5.55;;;6.80;1.00;;;;;;5070201;28;20213;-68
2021/03/14 02:38:59;;;;;;;3.40;3.10;;;6.80;1.00;;;;;;5070290;28;20189;-67
2021/03/14 02:41:25;;;;;;;3.13;2.92;;;6.80;1.00;;;;;;5069514;28;20206;-68
2021/03/14 02:43:52;;;;;;;3.00;2.80;;;6.80;1.00;;;;;;5069805;28;20228;-67
2021/03/14 02:46:19;;;;;;;2.92;2.67;;;6.70;1.00;;;;;;5069129;28;20182;-68
2021/03/14 02:48:45;;;;;;;4.93;2.63;;;6.70;1.00;;;;;;5068302;28;20185;-68
2021/03/14 02:51:11;;;;;;;3.07;2.50;;;6.70;1.00;;;;;;5068653;28;20512;-68
2021/03/14 02:53:38;;;;;;;3.22;2.95;;;6.70;1.00;;;;;;5069336;28;20467;-67
2021/03/14 02:56:05;;;;;;;3.40;2.88;;;6.60;1.00;;;;;;5069239;28;20293;-68
2021/03/14 02:58:32;;;;;;;3.17;2.88;;;6.60;1.00;;;;;;5069663;28;20277;-68
2021/03/14 03:00:58;;;;;;;3.00;2.80;;;6.60;1.00;;;;;;5068907;28;20514;-68
2021/03/14 03:03:25;;;;;;;3.95;3.65;;;6.60;1.00;;;;;;5069893;28;20315;-68
2021/03/14 03:05:58;;;;;;;4.13;3.15;;;6.60;1.00;;;;;;5071374;28;20181;-68
2021/03/14 03:08:29;;;;;;;3.38;2.67;;;6.50;1.00;;;;;;5072130;28;20189;-68
2021/03/14 03:10:56;;;;;;;3.03;2.80;;;6.50;1.00;;;;;;5068851;28;20193;-68
2021/03/14 03:13:23;;;;;;;3.20;2.90;;;6.50;1.00;;;;;;5067573;28;20189;-68
2021/03/14 03:15:50;;;;;;;2.95;2.70;;;6.40;1.00;;;;;;5068917;28;20201;-68
2021/03/14 03:18:15;;;;;;;3.33;3.03;;;6.50;1.00;;;;;;5068849;28;20269;-68
2021/03/14 03:20:42;;;;;;;2.77;2.60;;;6.50;1.00;;;;;;5070774;28;20276;-67
2021/03/14 03:23:08;;;;;;;3.28;3.05;;;6.50;1.00;;;;;;5080557;28;20800;-67
2021/03/14 03:25:33;;;;;;;4.38;2.70;;;6.50;1.00;;;;;;5069055;28;20258;-67
2021/03/14 03:27:59;;;;;;;2.80;2.60;;;6.50;1.00;;;;;;5068544;28;20630;-66
2021/03/14 03:30:27;;;;;;;3.70;3.30;;;6.50;1.00;;;;;;5069975;28;20192;-67
2021/03/14 03:32:53;;;;;;;3.60;3.20;;;6.50;1.00;;;;;;5067649;28;20201;-68
2021/03/14 03:35:20;;;;;;;4.00;2.77;;;6.50;1.00;;;;;;5069676;28;20235;-67
2021/03/14 03:37:47;;;;;;;6.35;3.10;;;6.50;1.00;;;;;;5066897;28;20185;-67
2021/03/14 03:40:16;;;;;;;3.13;2.92;;;6.50;1.00;;;;;;5069277;28;20670;-67
2021/03/14 03:43:08;;;;;;;3.75;3.25;;;6.50;1.00;;;;;;5068137;28;20193;-67
2021/03/14 03:45:38;;;;;;;2.72;2.53;;;6.40;1.00;;;;;;5069602;28;20194;-67
2021/03/14 03:48:06;;;;;;;3.88;3.40;;;6.50;1.00;;;;;;5067956;28;20643;-67
2021/03/14 03:50:32;;;;;;;3.33;3.13;;;6.50;1.00;;;;;;5069882;28;20299;-68
2021/03/14 03:52:58;;;;;;;3.10;2.90;;;6.40;1.00;;;;;;5067085;28;20200;-67
2021/03/14 03:55:26;;;;;;;3.60;2.75;;;6.40;1.00;;;;;;5069482;28;20269;-66
2021/03/14 03:57:54;;;;;;;3.30;2.80;;;6.40;1.00;;;;;;5068063;28;20716;-67
2021/03/14 04:00:22;;;;;;;2.90;2.70;;;6.40;1.00;;;;;;5069341;28;20174;-67
2021/03/14 04:02:48;;;;;;;3.10;2.90;;;6.40;1.00;;;;;;5067681;28;20218;-66
2021/03/14 04:05:17;;;;;;;4.25;2.95;;;6.40;1.00;;;;;;5068764;28;20286;-66
2021/03/14 04:07:46;;;;;;;3.10;2.90;;;6.40;1.00;;;;;;5067093;28;20215;-66
2021/03/14 04:10:18;;;;;;;3.10;2.88;;;6.40;1.00;;;;;;5068325;28;20193;-66
2021/03/14 04:12:45;;;;;;;3.28;2.97;;;6.40;1.00;;;;;;5063188;28;20285;-66
2021/03/14 04:15:13;;;;;;;3.25;3.05;;;6.40;1.00;;;;;;5066725;28;20319;-66
2021/03/14 04:17:41;;;;;;;4.70;3.10;;;6.40;1.00;;;;;;5077527;28;20181;-66
2021/03/14 04:20:11;;;;;;;2.88;2.67;;;6.40;1.00;;;;;;5068388;28;20280;-66
2021/03/14 04:22:39;;;;;;;3.80;3.00;;;6.40;1.00;;;;;;5067972;28;20513;-66
2021/03/14 04:25:06;;;;;;;3.67;3.20;;;6.40;1.00;;;;;;5068291;28;20271;-66
2021/03/14 04:27:33;;;;;;;5.03;3.38;;;6.40;1.00;;;;;;5065368;28;20725;-67
2021/03/14 04:29:59;;;;;;;3.78;3.55;;;6.30;1.00;;;;;;5068390;28;20185;-66
2021/03/14 04:32:25;;;;;;;2.80;2.70;;;6.30;1.00;;;;;;5067818;28;20203;-67
2021/03/14 04:34:52;;;;;;;4.10;3.20;;;6.30;1.00;;;;;;5068194;28;20215;-66
2021/03/14 04:37:20;;;;;;;3.40;3.13;;;6.30;1.00;;;;;;5067884;28;20515;-66
2021/03/14 04:39:45;;;;;;;3.10;2.90;;;6.30;1.00;;;;;;5068621;28;20551;-66
2021/03/14 04:42:12;;;;;;;3.97;3.03;;;6.30;1.00;;;;;;5067623;28;20181;-66
2021/03/14 04:44:39;;;;;;;3.35;3.15;;;6.20;1.00;;;;;;5068367;28;20182;-66
2021/03/14 04:47:05;;;;;;;3.40;3.10;;;6.10;1.00;;;;;;5066923;28;20177;-66
2021/03/14 04:49:32;;;;;;;5.47;3.55;;;6.20;1.00;;;;;;5070024;28;20209;-66
2021/03/14 04:51:58;;;;;;;3.75;2.90;;;6.20;1.00;;;;;;5071578;28;20185;-66
2021/03/14 04:54:24;;;;;;;3.28;2.97;;;6.20;5.80;;;;;;5072173;28;20177;-67
2021/03/14 04:56:52;;;;;;;3.63;3.33;;;6.30;1.00;;;;;;5072612;28;20981;-66
2021/03/14 04:59:18;;;;;;;3.55;3.20;;;6.20;13.30;;;;;;5072180;28;20177;-66
2021/03/14 05:01:45;;;;;;;3.40;3.20;;;6.20;91.20;;;;;;5072481;28;20896;-67
2021/03/14 05:04:15;;;;;;;3.88;3.55;;;6.20;99.90;;;;;;5070600;28;21369;-68
2021/03/14 05:06:43;;;;;;;3.08;2.88;;;6.20;99.80;;;;;;5070383;28;20679;-68
2021/03/14 05:09:13;;;;;;;3.40;3.20;;;6.30;99.90;;;;;;5069826;28;20819;-68
2021/03/14 05:11:40;;;;;;;3.60;3.30;;;6.20;99.90;;;;;;5064506;28;20176;-68
2021/03/14 05:14:06;;;;;;;3.10;2.90;;;6.30;99.90;;;;;;5070912;28;20181;-67
2021/03/14 05:16:32;;;;;;;3.97;3.67;;;6.20;99.90;;;;;;5071350;28;20201;-66
2021/03/14 05:18:57;;;;;;;3.70;3.37;;;6.20;99.90;;;;;;5072077;28;20177;-66
2021/03/14 05:21:23;;;;;;;3.80;3.50;;;6.20;99.90;;;;;;5071806;28;20181;-66
2021/03/14 05:23:50;;;;;;;3.60;3.13;;;6.10;99.90;;;;;;5069351;28;20796;-68
2021/03/14 05:26:16;;;;;;;4.10;3.70;;;6.10;99.90;;;;;;5072220;28;20181;-67
2021/03/14 05:28:42;;;;;;;3.40;3.20;;;6.00;99.90;;;;;;5069932;28;20185;-66
2021/03/14 05:31:38;;;;;;;7.30;3.53;;;6.00;99.90;;;;;;5072141;28;20431;-67
2021/03/14 05:34:07;;;;;;;3.95;3.63;;;6.00;99.90;;;;;;5052618;28;20205;-66
2021/03/14 05:36:34;;;;;;;3.67;3.40;;;6.00;99.90;;;;;;5072344;28;20228;-67
2021/03/14 05:39:02;;;;;;;3.65;3.45;;;6.10;99.90;;;;;;5069899;28;20189;-67
2021/03/14 05:41:28;;;;;;;3.30;3.00;;;6.00;99.90;;;;;;5072217;28;20254;-68
2021/03/14 05:43:54;;;;;;;4.43;3.60;;;6.00;99.90;;;;;;5070777;28;20264;-68
2021/03/14 05:46:20;;;;;;;3.70;3.42;;;6.00;99.90;;;;;;5071219;28;20181;-68
2021/03/14 05:48:46;;;;;;;3.30;3.00;;;6.00;99.90;;;;;;5070454;28;20185;-67
2021/03/14 05:51:31;;;;;;;3.67;3.40;;;6.00;99.90;;;;;;5072114;28;20502;-67
2021/03/14 05:53:58;;;;;;;3.70;3.40;;;6.00;99.90;;;;;;5070466;28;20205;-66
2021/03/14 05:56:25;;;;;;;4.60;4.07;;;6.00;99.90;;;;;;5071811;28;20204;-66
2021/03/14 05:58:52;;;;;;;4.10;3.63;;;6.00;99.90;;;;;;5070024;28;20211;-66
2021/03/14 06:01:28;;;;;;;4.18;3.80;;;6.00;99.90;;;;;;5074627;28;20177;-67
2021/03/14 06:03:55;;;;;;;3.67;3.38;;;6.00;99.90;;;;;;5074872;28;20236;-67
2021/03/14 06:06:21;;;;;;;3.60;3.30;;;6.10;73.40;;;;;;5070168;28;20186;-67
2021/03/14 06:08:47;;;;;;;4.00;3.70;;;6.10;28.80;;;;;;5071849;28;20157;-67
2021/03/14 06:11:13;;;;;;;3.50;3.20;;;6.20;15.20;;;;;;5070190;28;20431;-65
2021/03/14 06:13:39;;;;;;;3.80;3.50;;;6.20;9.40;;;;;;5071756;28;20184;-66
2021/03/14 06:16:05;;;;;;;3.95;3.65;;;6.30;1.00;;;;;;5070147;28;20623;-65
2021/03/14 06:18:31;;;;;;;4.45;3.85;;;6.20;1.00;;;;;;5069941;28;20582;-65
2021/03/14 06:20:57;;;;;;;3.45;3.25;;;6.30;1.00;;;;;;5069954;28;20268;-65
2021/03/14 06:23:23;;;;;;;6.10;3.90;;;6.40;1.00;;;;;;5070159;28;20264;-66
2021/03/14 06:25:54;;;;;;;3.35;3.05;;;6.40;1.00;;;;;;5071364;28;20184;-63
2021/03/14 06:28:37;;;;;;;4.35;3.95;;;6.40;1.00;;;;;;5069941;28;20213;-64
2021/03/14 06:31:19;;;;;;;3.83;3.45;;;6.40;1.00;;;;;;5070270;28;20211;-64
2021/03/14 06:33:44;;;;;;;3.63;3.33;;;6.50;1.00;;;;;;5070544;28;20181;-65
2021/03/14 06:36:15;;;;;;;3.40;3.10;;;6.50;1.00;;;;;;5070547;28;20217;-64
2021/03/14 06:38:41;;;;;;;3.25;3.05;;;6.60;1.00;;;;;;5070518;28;20278;-63
2021/03/14 06:41:07;;;;;;;3.75;3.45;;;6.60;1.00;;;;;;5070376;28;20174;-63
2021/03/14 06:43:34;;;;;;;3.77;3.47;;;6.70;1.00;;;;;;5074612;28;20466;-64
2021/03/14 06:46:02;;;;;;;3.58;3.38;;;6.80;1.00;;;;;;5069169;28;20844;-63
2021/03/14 06:48:28;;;;;;;3.85;3.55;;;6.80;1.00;;;;;;5070796;28;20185;-64
2021/03/14 06:50:55;;;;;;;3.83;3.63;;;6.80;1.00;;;;;;5069379;28;20254;-64
2021/03/14 06:53:24;;;;;;;5.22;3.40;;;7.00;1.00;;;;;;5070520;28;20567;-64
2021/03/14 06:56:03;;;;;;;3.92;3.53;;;7.00;1.00;;;;;;5067919;28;20209;-65
2021/03/14 06:58:33;;;;;;;3.75;3.45;;;7.10;1.00;;;;;;5069043;28;20178;-66
2021/03/14 07:01:17;;;;;;;3.25;2.95;;;7.10;1.00;;;;;;5067620;28;20624;-66
2021/03/14 07:03:44;;;;;;;3.42;3.22;;;7.20;1.00;;;;;;5068086;28;20226;-64
2021/03/14 07:06:26;;;;;;;3.67;3.38;;;7.20;1.00;;;;;;5060280;28;20277;-64
2021/03/14 07:08:53;;;;;;;4.40;4.00;;;7.30;1.00;;;;;;5068944;28;20224;-64
2021/03/14 07:11:39;;;;;;;4.70;3.60;;;7.30;1.00;;;;;;5066215;28;20189;-64
2021/03/14 07:14:10;;;;;;;4.43;3.20;;;7.30;1.00;;;;;;5066645;28;20269;-64
2021/03/14 07:16:52;;;;;;;4.20;3.90;;;7.30;1.00;;;;;;5065749;28;20217;-64
2021/03/14 07:19:28;;;;;;;4.60;4.20;;;7.40;1.00;;;;;;5064571;28;20536;-64
2021/03/14 07:22:08;;;;;;;3.92;3.72;;;7.40;1.00;;;;;;5069904;28;20234;-64
2021/03/14 07:24:42;;;;;;;4.45;3.90;;;7.50;1.00;;;;;;5069473;28;20229;-64
2021/03/14 07:27:31;;;;;;;5.88;4.07;;;7.50;1.00;;;;;;5060167;28;20214;-64
2021/03/14 07:29:59;;;;;;;4.20;3.90;;;7.60;1.00;;;;;;5067319;28;20168;-64
2021/03/14 07:32:26;;;;;;;3.90;3.60;;;7.60;1.00;;;;;;5066503;28;20846;-64
2021/03/14 07:34:53;;;;;;;4.60;4.30;;;7.70;1.00;;;;;;5068735;28;20710;-64
2021/03/14 07:37:19;;;;;;;4.30;4.00;;;7.80;1.00;;;;;;5068736;28;20907;-64
2021/03/14 07:39:48;;;;;;;4.40;4.10;;;7.70;1.00;;;;;;5068793;28;20197;-65
2021/03/14 07:42:19;;;;;;;4.65;4.25;;;7.80;1.00;;;;;;5068320;28;20944;-65
2021/03/14 07:44:45;;;;;;;4.75;3.97;;;7.80;1.00;;;;;;5066229;28;20198;-66
2021/03/14 07:47:14;;;;;;;4.07;3.77;;;7.90;1.00;;;;;;5067425;28;20196;-65
2021/03/14 07:49:44;;;;;;;3.80;3.60;;;7.90;1.00;;;;;;5069802;28;20196;-65
2021/03/14 07:52:14;;;;;;;3.63;3.42;;;7.80;1.00;;;;;;5049847;28;20179;-65
2021/03/14 07:54:46;;;;;;;4.10;3.80;;;7.80;1.00;;;;;;5058986;28;20206;-65
2021/03/14 07:57:13;;;;;;;4.70;3.95;;;7.90;1.00;;;;;;5069161;28;20274;-65
2021/03/14 07:59:41;;;;;;;4.53;3.97;;;8.00;1.00;;;;;;5071669;28;20532;-65
2021/03/14 08:02:16;;;;;;;3.70;3.50;;;8.00;1.00;;;;;;5078724;28;20234;-65
2021/03/14 08:04:46;;;;;;;3.70;3.40;;;8.10;1.00;;;;;;5073301;28;20461;-65
2021/03/14 08:07:11;;;;;;;4.25;4.00;;;8.20;1.00;;;;;;5068236;28;20484;-65
2021/03/14 08:09:41;;;;;;;4.30;3.87;;;8.20;1.00;;;;;;5068277;28;20184;-65
2021/03/14 08:12:17;;;;;;;3.40;3.20;;;8.30;1.00;;;;;;5067255;28;20195;-66
2021/03/14 08:14:44;;;;;;;3.97;3.63;;;8.30;1.00;;;;;;5069245;28;20461;-66
2021/03/14 08:17:26;;;;;;;3.80;3.07;;;8.20;1.00;;;;;;5068643;28;20521;-65
2021/03/14 08:19:53;;;;;;;4.05;3.75;;;8.00;1.00;;;;;;5069399;28;20417;-65
2021/03/14 08:22:36;;;;;;;3.85;3.63;;;7.90;1.00;;;;;;5068202;28;20181;-66
2021/03/14 08:25:16;;;;;;;4.53;3.90;;;7.90;1.00;;;;;;5068426;28;20195;-66
2021/03/14 08:27:41;;;;;;;4.03;3.67;;;7.80;1.00;;;;;;5068641;28;20182;-65
2021/03/14 08:30:07;;;;;;;4.13;3.57;;;7.80;1.00;;;;;;5068732;28;20197;-65
2021/03/14 08:32:33;;;;;;;4.60;4.20;;;7.90;1.00;;;;;;5067822;28;20186;-65
2021/03/14 08:34:59;;;;;;;3.93;3.53;;;8.00;1.00;;;;;;5069211;28;20200;-65
2021/03/14 08:37:26;;;;;;;3.77;3.47;;;8.00;1.00;;;;;;5068387;28;20184;-65
2021/03/14 08:40:04;;;;;;;4.10;3.70;;;8.10;1.00;;;;;;5068807;28;20184;-65
2021/03/14 08:42:53;;;;;;;3.90;3.60;;;8.30;1.00;;;;;;5056602;28;20417;-65
2021/03/14 08:45:22;;;;;;;4.20;3.83;;;8.30;1.00;;;;;;5068912;28;20518;-65
2021/03/14 08:47:49;;;;;;;4.63;4.22;;;8.30;1.00;;;;;;5068114;28;20977;-64
2021/03/14 08:50:14;;;;;;;4.13;3.83;;;8.30;1.00;;;;;;5068988;28;20763;-64
2021/03/14 08:52:40;;;;;;;3.43;3.23;;;8.50;1.00;;;;;;5067906;28;20524;-66
2021/03/14 08:55:06;;;;;;;3.90;3.60;;;8.50;99.90;;;;;;5055854;28;20261;-65
2021/03/14 08:57:31;;;;;;;3.67;3.33;;;8.40;1.00;;;;;;5068223;28;20180;-65
2021/03/14 08:59:58;;;;;;;3.23;3.03;;;8.50;1.00;;;;;;5068761;28;20495;-66
2021/03/14 09:02:28;;;;;;;4.30;4.00;;;8.50;1.00;;;;;;5067619;28;20618;-66
2021/03/14 09:05:08;;;;;;;4.37;4.07;;;8.60;99.90;;;;;;5068038;28;20476;-67
2021/03/14 09:07:34;;;;;;;4.10;3.80;;;8.60;1.00;;;;;;5067703;28;20528;-66
2021/03/14 09:10:08;;;;;;;4.80;4.40;;;8.60;1.00;;;;;;5068255;28;20843;-66
2021/03/14 09:12:34;;;;;;;4.43;4.03;;;8.60;1.00;;;;;;5067898;28;20178;-66
2021/03/14 09:15:07;;;;;;;5.10;4.20;;;8.40;1.00;;;;;;5068634;28;20521;-66
2021/03/14 09:17:38;;;;;;;4.70;4.30;;;8.20;1.00;;;;;;5067473;28;20184;-65
2021/03/14 09:20:05;;;;;;;5.15;4.75;;;8.00;99.90;;;;;;5068516;28;20920;-65
2021/03/14 09:22:34;;;;;;;5.63;4.05;;;7.70;99.90;;;;;;5067994;28;20798;-65
2021/03/14 09:25:05;;;;;;;5.65;4.60;;;7.30;12.20;;;;;;5068444;28;20599;-65
2021/03/14 09:27:33;;;;;;;5.07;4.68;;;7.10;1.00;;;;;;5067959;28;20262;-66
2021/03/14 09:30:00;;;;;;;5.28;4.80;;;7.00;99.90;;;;;;5068134;28;20182;-66
2021/03/14 09:32:48;;;;;;;5.60;5.10;;;6.80;99.90;;;;;;5066879;28;20655;-66
2021/03/14 09:35:33;;;;;;;5.70;4.70;;;6.70;99.90;;;;;;5070322;28;20296;-67
2021/03/14 09:38:03;;;;;;;5.78;5.28;;;6.60;99.90;;;;;;5071520;28;20181;-67
2021/03/14 09:40:37;;;;;;;5.85;4.53;;;6.60;1.00;;;;;;5075976;28;20485;-67
2021/03/14 09:43:03;;;;;;;4.65;4.05;;;6.50;99.90;;;;;;5071384;28;20181;-67
2021/03/14 09:45:30;;;;;;;6.40;5.13;;;6.30;99.90;;;;;;5072090;28;20211;-68
2021/03/14 09:48:13;;;;;;;4.85;4.45;;;6.20;1.00;;;;;;5071568;28;20207;-68
2021/03/14 09:50:59;;;;;;;9.52;5.32;;;6.20;1.00;;;;;;5071417;28;20212;-67
2021/03/14 09:53:30;;;;;;;6.25;4.80;;;6.10;1.00;;;;;;5071473;28;20842;-66
2021/03/14 09:56:00;;;;;;;6.00;5.13;;;6.10;1.00;;;;;;5072224;28;20200;-66
2021/03/14 09:58:28;;;;;;;4.60;4.20;;;6.10;1.00;;;;;;5070863;28;20184;-67
2021/03/14 10:00:56;;;;;;;4.32;3.67;;;6.10;1.00;;;;;;5071878;28;20173;-67
2021/03/14 10:03:28;;;;;;;5.45;4.35;;;6.10;1.00;;;;;;5071002;28;20228;-67
2021/03/14 10:05:59;;;;;;;6.50;4.50;;;6.20;1.00;;;;;;5070702;28;20292;-67
2021/03/14 10:08:34;;;;;;;4.53;4.13;;;6.20;1.00;;;;;;5070422;28;20179;-66
2021/03/14 10:11:03;;;;;;;4.78;4.28;;;6.40;1.00;;;;;;5072083;28;20308;-67
2021/03/14 10:13:30;;;;;;;5.80;5.20;;;6.40;1.00;;;;;;5071142;28;20174;-67
2021/03/14 10:15:57;;;;;;;5.07;4.40;;;6.40;1.00;;;;;;5070634;28;20632;-67
2021/03/14 10:18:25;;;;;;;5.55;4.88;;;6.50;1.00;;;;;;5070873;28;20177;-66
2021/03/14 10:21:11;;;;;;;4.85;3.17;;;6.50;1.00;;;;;;5069504;28;20177;-67
2021/03/14 10:23:37;;;;;;;4.05;3.65;;;6.60;99.90;;;;;;5069461;28;20219;-66
2021/03/14 10:26:07;;;;;;;4.63;4.20;;;6.60;99.90;;;;;;5070390;28;20628;-66
2021/03/14 10:28:36;;;;;;;5.60;4.63;;;6.60;1.00;;;;;;5075079;28;20189;-66
2021/03/14 10:31:03;;;;;;;4.53;4.15;;;6.60;99.90;;;;;;5061119;28;20190;-67
2021/03/14 10:33:43;;;;;;;6.72;4.88;;;6.70;1.00;;;;;;5068601;28;20200;-67
2021/03/14 10:36:17;;;;;;;5.07;3.95;;;6.60;99.90;;;;;;5069998;28;20285;-66
2021/03/14 10:38:51;;;;;;;6.38;4.70;;;6.80;99.90;;;;;;5070914;28;20206;-66
2021/03/14 10:41:19;;;;;;;4.70;3.85;;;6.80;1.00;;;;;;5069402;28;20170;-66
2021/03/14 10:43:53;;;;;;;4.60;4.20;;;7.00;99.90;;;;;;5071575;28;20185;-67
2021/03/14 10:46:42;;;;;;;5.18;4.18;;;7.00;99.90;;;;;;5070881;28;20190;-67
2021/03/14 10:49:24;;;;;;;6.20;4.95;;;7.10;1.00;;;;;;5060219;28;20212;-67
2021/03/14 10:51:56;;;;;;;5.50;4.35;;;7.30;1.00;;;;;;5060459;28;20576;-66
2021/03/14 10:54:30;;;;;;;5.45;4.53;;;7.50;99.90;;;;;;5061804;28;20289;-67
2021/03/14 10:56:56;;;;;;;4.63;4.22;;;7.60;99.90;;;;;;5060684;28;20323;-67
2021/03/14 10:59:29;;;;;;;5.03;4.43;;;7.60;99.90;;;;;;5060705;28;20200;-67
2021/03/14 11:02:11;;;;;;;5.20;4.70;;;7.70;99.90;;;;;;5060145;28;21522;-66
2021/03/14 11:04:37;;;;;;;5.27;4.80;;;7.90;1.00;;;;;;5062081;28;20228;-66
2021/03/14 11:07:24;;;;;;;4.73;4.27;;;7.90;99.90;;;;;;5062893;28;20495;-66
2021/03/14 11:09:51;;;;;;;5.07;4.67;;;8.00;1.00;;;;;;5069123;28;20415;-66
2021/03/14 11:12:33;;;;;;;5.00;4.10;;;8.00;99.90;;;;;;5065071;28;21294;-65
2021/03/14 11:14:59;;;;;;;5.63;4.97;;;7.90;99.90;;;;;;5066581;28;20337;-66
2021/03/14 11:17:30;;;;;;;5.50;4.63;;;7.80;1.00;;;;;;5066259;28;20179;-66
2021/03/14 11:19:56;;;;;;;5.67;5.10;;;7.80;99.90;;;;;;5065874;28;20205;-66
2021/03/14 11:22:22;;;;;;;5.30;4.80;;;7.70;42.60;;;;;;5068742;28;20475;-66
2021/03/14 11:24:50;;;;;;;6.10;5.50;;;7.80;1.00;;;;;;5069451;28;20190;-68
2021/03/14 11:27:16;;;;;;;5.37;4.87;;;7.90;1.00;;;;;;5066459;28;20186;-68
2021/03/14 11:29:42;;;;;;;5.70;4.73;;;8.10;99.90;;;;;;5069133;28;20417;-66
2021/03/14 11:32:10;;;;;;;7.13;5.10;;;8.10;99.90;;;;;;5068208;28;20410;-66
2021/03/14 11:34:37;;;;;;;5.30;4.80;;;8.10;99.90;;;;;;5061195;28;20445;-67
2021/03/14 11:37:03;;;;;;;5.23;4.73;;;8.30;99.90;;;;;;5067438;28;20434;-67
2021/03/14 11:39:29;;;;;;;5.90;5.40;;;8.50;99.90;;;;;;5068790;28;20496;-68
2021/03/14 11:41:54;;;;;;;5.87;5.33;;;8.80;61.90;;;;;;5069061;28;20856;-67
2021/03/14 11:44:20;;;;;;;5.00;4.60;;;9.00;1.00;;;;;;5068172;28;20646;-69
2021/03/14 11:46:46;;;;;;;6.43;5.00;;;8.80;1.00;;;;;;5068344;28;20196;-68
2021/03/14 11:49:12;;;;;;;6.90;5.20;;;8.40;99.90;;;;;;5066031;28;20186;-68
2021/03/14 11:51:38;;;;;;;7.37;4.57;;;8.30;1.00;;;;;;5066532;28;20434;-64
2021/03/14 11:54:04;;;;;;;6.17;5.20;;;8.20;99.90;;;;;;5068802;28;20499;-65
2021/03/14 11:56:30;;;;;;;5.43;4.93;;;8.20;99.90;;;;;;5068288;28;20334;-64
2021/03/14 11:58:58;;;;;;;6.57;4.90;;;8.30;99.90;;;;;;5065925;28;20438;-65
2021/03/14 12:01:25;;;;;;;4.93;4.43;;;8.40;5.40;;;;;;5067855;28;20452;-65
2021/03/14 12:03:51;;;;;;;6.20;4.50;;;8.60;1.00;;;;;;5068276;28;20810;-65
2021/03/14 12:06:17;;;;;;;5.80;4.70;;;8.50;99.90;;;;;;5065864;28;20863;-66
2021/03/14 12:08:42;;;;;;;4.80;4.40;;;8.40;99.90;;;;;;5061656;28;20462;-65
2021/03/14 12:11:08;;;;;;;5.57;5.07;;;8.40;99.90;;;;;;5066552;28;20243;-65
2021/03/14 12:13:34;;;;;;;4.60;4.20;;;8.50;53.10;;;;;;5069132;28;20180;-65
2021/03/14 12:16:01;;;;;;;5.13;4.63;;;8.60;1.00;;;;;;5067619;28;20354;-65
2021/03/14 12:18:27;;;;;;;5.07;4.67;;;8.80;1.00;;;;;;5067423;28;20546;-65
2021/03/14 12:20:53;;;;;;;4.43;3.90;;;8.90;1.00;;;;;;5067936;28;20423;-65
2021/03/14 12:23:19;;;;;;;4.70;4.37;;;9.10;99.90;;;;;;5067530;28;20438;-64
2021/03/14 12:25:45;;;;;;;4.27;3.87;;;9.20;99.90;;;;;;5069133;28;20538;-65
2021/03/14 12:28:11;;;;;;;5.53;4.20;;;9.00;99.90;;;;;;5068250;28;20438;-65
2021/03/14 12:30:36;;;;;;;4.07;3.67;;;9.30;99.90;;;;;;5067663;28;20439;-64
2021/03/14 12:33:02;;;;;;;6.50;4.43;;;9.50;99.90;;;;;;5067463;28;20593;-65
2021/03/14 12:35:28;;;;;;;4.20;3.80;;;9.50;77.30;;;;;;5068006;28;20201;-65
2021/03/14 12:37:53;;;;;;;4.57;4.23;;;9.50;26.10;;;;;;5068058;28;20239;-65
2021/03/14 12:40:19;;;;;;;4.83;4.43;;;9.50;40.70;;;;;;5068303;28;20283;-65
2021/03/14 12:42:45;;;;;;;5.77;4.50;;;9.50;6.10;;;;;;5067194;28;20189;-65
2021/03/14 12:45:11;;;;;;;5.10;4.70;;;9.30;1.00;;;;;;5068278;28;20419;-67
2021/03/14 12:47:37;;;;;;;5.10;4.67;;;9.50;1.00;;;;;;5068632;28;20238;-66
2021/03/14 12:50:06;;;;;;;5.30;4.57;;;9.60;1.00;;;;;;5066973;28;20439;-65
2021/03/14 12:52:33;;;;;;;5.90;5.30;;;9.60;1.00;;;;;;5068604;28;20173;-65
2021/03/14 12:54:58;;;;;;;5.40;4.90;;;9.60;1.00;;;;;;5067776;28;20463;-66
2021/03/14 12:57:24;;;;;;;5.93;5.27;;;10.10;1.00;;;;;;5067825;28;20416;-65
2021/03/14 12:59:49;;;;;;;5.93;5.50;;;10.60;1.00;;;;;;5067377;28;20185;-66
2021/03/14 13:02:15;;;;;;;6.00;5.40;;;11.00;1.00;;;;;;5068599;28;20177;-66
2021/03/14 13:04:40;;;;;;;5.40;4.90;;;11.40;1.00;;;;;;5067602;28;20566;-65
2021/03/14 13:07:06;;;;;;;5.43;4.77;;;11.80;1.00;;;;;;5067654;28;20173;-64
2021/03/14 13:09:31;;;;;;;5.90;5.23;;;12.20;1.00;;;;;;5067731;28;20173;-64
2021/03/14 13:12:00;;;;;;;6.23;5.70;;;12.40;99.90;;;;;;5072591;28;20264;-64
2021/03/14 13:14:26;;;;;;;7.53;6.47;;;12.30;99.90;;;;;;5070277;28;20184;-63